createdAt,value
2023-02-06T00:01:51.642Z,47.73
2023-02-06T00:04:19.148Z,44.67
2023-02-06T00:06:46.753Z,47.03
2023-02-06T00:09:14.821Z,51.27
2023-02-06T00:11:42.334Z,46.00
2023-02-06T00:14:09.848Z,48.37
2023-02-06T00:16:37.537Z,55.23
2023-02-06T00:19:05.277Z,59.17
2023-02-06T00:21:33.027Z,59.47
2023-02-06T00:24:01.801Z,58.03
2023-02-06T00:26:31.383Z,56.93
2023-02-06T00:28:58.919Z,58.97
2023-02-06T00:31:26.621Z,68.43
2023-02-06T00:33:54.113Z,60.47
2023-02-06T00:36:21.614Z,55.63
2023-02-06T00:38:49.418Z,74.83
2023-02-06T00:41:16.880Z,53.77
2023-02-06T00:43:44.332Z,52.97
2023-02-06T00:46:12.111Z,45.00
2023-02-06T00:48:39.600Z,41.77
2023-02-06T00:51:07.106Z,40.00
2023-02-06T00:53:34.636Z,40.57
2023-02-06T00:56:02.254Z,40.73
2023-02-06T00:58:29.642Z,38.10
2023-02-06T01:00:57.173Z,41.33
2023-02-06T01:03:24.632Z,40.07
2023-02-06T01:05:52.410Z,47.93
2023-02-06T01:08:19.801Z,46.13
2023-02-06T01:10:47.203Z,44.50
2023-02-06T01:13:14.658Z,45.63
2023-02-06T01:15:42.240Z,46.20
2023-02-06T01:18:10.340Z,43.93
2023-02-06T01:20:40.194Z,47.50
2023-02-06T01:23:07.661Z,50.57
2023-02-06T01:25:35.250Z,52.53
2023-02-06T01:28:02.930Z,51.37
2023-02-06T01:30:30.421Z,44.57
2023-02-06T01:32:57.956Z,44.03
2023-02-06T01:35:25.519Z,39.27
2023-02-06T01:37:52.965Z,37.40
2023-02-06T01:40:20.441Z,36.37
2023-02-06T01:42:47.857Z,38.10
2023-02-06T01:45:27.140Z,37.83
2023-02-06T01:48:04.540Z,38.80
2023-02-06T01:50:34.739Z,39.43
2023-02-06T01:53:03.846Z,37.60
2023-02-06T01:55:31.429Z,36.97
2023-02-06T01:58:01.308Z,38.40
2023-02-06T02:00:28.855Z,34.27
2023-02-06T02:02:56.373Z,36.83
2023-02-06T02:05:23.962Z,36.53
2023-02-06T02:08:04.888Z,46.20
2023-02-06T02:10:32.590Z,39.53
2023-02-06T02:13:00.081Z,38.33
2023-02-06T02:15:39.668Z,38.23
2023-02-06T02:18:26.729Z,38.13
2023-02-06T02:21:38.900Z,40.17
2023-02-06T02:24:08.839Z,41.30
2023-02-06T02:26:56.911Z,41.23
2023-02-06T02:30:10.815Z,36.73
2023-02-06T02:32:49.460Z,37.33
2023-02-06T02:35:46.049Z,38.23
2023-02-06T02:39:02.453Z,36.97
2023-02-06T02:41:34.561Z,38.83
2023-02-06T02:44:28.083Z,35.40
2023-02-06T02:47:01.936Z,35.47
2023-02-06T02:49:33.467Z,38.07
2023-02-06T02:52:01.836Z,40.90
2023-02-06T02:54:29.284Z,37.33
2023-02-06T02:57:08.894Z,37.40
2023-02-06T02:59:45.174Z,34.87
2023-02-06T03:02:35.657Z,36.53
2023-02-06T03:05:08.637Z,39.67
2023-02-06T03:08:23.395Z,39.10
2023-02-06T03:11:04.700Z,37.03
2023-02-06T03:13:40.494Z,39.60
2023-02-06T03:16:33.793Z,40.20
2023-02-06T03:19:03.966Z,36.30
2023-02-06T03:21:32.730Z,38.57
2023-02-06T03:24:06.282Z,39.83
2023-02-06T03:26:37.405Z,38.07
2023-02-06T03:29:09.723Z,39.07
2023-02-06T03:31:47.840Z,38.87
2023-02-06T03:34:42.780Z,35.70
2023-02-06T03:37:11.945Z,38.63
2023-02-06T03:39:40.342Z,37.13
2023-02-06T03:42:11.073Z,39.63
2023-02-06T03:44:45.199Z,41.47
2023-02-06T03:47:14.009Z,42.57
2023-02-06T03:49:44.191Z,40.80
2023-02-06T03:52:17.154Z,55.00
2023-02-06T03:54:53.049Z,56.33
2023-02-06T03:57:23.591Z,55.50
2023-02-06T03:59:51.861Z,51.57
2023-02-06T04:02:21.384Z,59.17
2023-02-06T04:04:48.883Z,57.07
2023-02-06T04:07:26.164Z,54.17
2023-02-06T04:09:53.798Z,53.30
2023-02-06T04:12:23.564Z,54.77
2023-02-06T04:14:52.002Z,51.83
2023-02-06T04:17:38.471Z,58.23
2023-02-06T04:20:07.619Z,52.27
2023-02-06T04:22:35.394Z,54.40
2023-02-06T04:25:02.983Z,47.20
2023-02-06T04:27:30.525Z,53.20
2023-02-06T04:29:58.004Z,65.10
2023-02-06T04:32:25.757Z,57.10
2023-02-06T04:34:53.225Z,69.27
2023-02-06T04:37:20.603Z,58.57
2023-02-06T04:39:48.179Z,77.33
2023-02-06T04:42:15.702Z,69.07
2023-02-06T04:44:43.108Z,64.87
2023-02-06T04:47:10.526Z,66.57
2023-02-06T04:49:37.953Z,73.93
2023-02-06T04:52:05.464Z,85.60
2023-02-06T04:54:33.021Z,95.80
2023-02-06T04:57:00.867Z,105.37
2023-02-06T04:59:28.374Z,106.67
2023-02-06T05:01:55.758Z,99.07
2023-02-06T05:04:23.380Z,108.13
2023-02-06T05:06:50.816Z,89.07
2023-02-06T05:09:18.286Z,70.30
2023-02-06T05:11:45.695Z,68.00
2023-02-06T05:14:13.180Z,68.57
2023-02-06T05:16:40.652Z,67.53
2023-02-06T05:19:08.092Z,61.67
2023-02-06T05:21:35.603Z,62.27
2023-02-06T05:24:03.155Z,72.03
2023-02-06T05:26:30.567Z,76.47
2023-02-06T05:28:58.433Z,77.20
2023-02-06T05:31:26.010Z,78.97
2023-02-06T05:33:53.747Z,107.23
2023-02-06T05:36:22.769Z,108.30
2023-02-06T05:38:51.083Z,110.43
2023-02-06T05:41:19.050Z,100.00
2023-02-06T05:43:46.579Z,105.87
2023-02-06T05:46:14.501Z,179.70
2023-02-06T05:48:42.287Z,114.20
2023-02-06T05:51:09.738Z,104.03
2023-02-06T05:53:37.233Z,84.37
2023-02-06T05:56:05.535Z,80.40
2023-02-06T05:58:33.147Z,87.93
2023-02-06T06:01:00.647Z,62.67
2023-02-06T06:03:28.158Z,68.47
2023-02-06T06:05:55.708Z,71.33
2023-02-06T06:08:23.235Z,86.80
2023-02-06T06:10:52.741Z,70.10
2023-02-06T06:13:20.226Z,67.30
2023-02-06T06:15:52.633Z,57.17
2023-02-06T06:18:21.157Z,58.30
2023-02-06T06:20:49.614Z,52.77
2023-02-06T06:23:17.265Z,55.93
2023-02-06T06:25:47.341Z,69.33
2023-02-06T06:28:14.892Z,67.30
2023-02-06T06:30:42.889Z,65.03
2023-02-06T06:33:10.624Z,59.97
2023-02-06T06:35:38.490Z,70.67
2023-02-06T06:38:06.081Z,64.43
2023-02-06T06:40:33.499Z,63.37
2023-02-06T06:43:00.913Z,67.27
2023-02-06T06:45:28.437Z,65.70
2023-02-06T06:47:55.930Z,66.77
2023-02-06T06:50:23.405Z,67.73
2023-02-06T06:52:50.889Z,69.80
2023-02-06T06:55:19.720Z,65.90
2023-02-06T06:57:47.799Z,68.20
2023-02-06T07:00:16.877Z,73.20
2023-02-06T07:02:44.453Z,83.00
2023-02-06T07:05:12.160Z,69.80
2023-02-06T07:07:39.743Z,62.67
2023-02-06T07:10:09.161Z,70.70
2023-02-06T07:12:36.853Z,67.83
2023-02-06T07:15:05.831Z,58.80
2023-02-06T07:17:33.559Z,65.03
2023-02-06T07:20:01.002Z,56.73
2023-02-06T07:22:28.614Z,59.07
2023-02-06T07:24:56.106Z,62.97
2023-02-06T07:27:23.531Z,56.10
2023-02-06T07:29:50.921Z,57.67
2023-02-06T07:32:18.391Z,55.50
2023-02-06T07:34:45.839Z,55.47
2023-02-06T07:37:13.426Z,56.77
2023-02-06T07:39:40.846Z,56.57
2023-02-06T07:42:08.422Z,51.20
2023-02-06T07:44:35.784Z,51.63
2023-02-06T07:47:03.289Z,62.13
2023-02-06T07:49:30.760Z,54.00
2023-02-06T07:51:58.180Z,55.77
2023-02-06T07:54:25.612Z,47.30
2023-02-06T07:56:53.096Z,66.37
2023-02-06T07:59:20.939Z,47.73
2023-02-06T08:01:48.343Z,42.57
2023-02-06T08:04:15.815Z,42.33
2023-02-06T08:06:44.274Z,39.37
2023-02-06T08:09:18.897Z,43.63
2023-02-06T08:11:46.346Z,41.00
2023-02-06T08:14:13.788Z,46.23
2023-02-06T08:16:41.341Z,43.67
2023-02-06T08:19:11.081Z,39.70
2023-02-06T08:21:39.108Z,37.33
2023-02-06T08:24:06.888Z,38.07
2023-02-06T08:26:34.457Z,46.77
2023-02-06T08:29:05.599Z,52.27
2023-02-06T08:31:39.356Z,46.23
2023-02-06T08:34:08.826Z,37.87
2023-02-06T08:36:36.820Z,36.70
2023-02-06T08:39:05.861Z,33.67
2023-02-06T08:41:37.459Z,36.20
2023-02-06T08:44:11.991Z,34.03
2023-02-06T08:46:40.327Z,33.70
2023-02-06T08:49:15.378Z,36.07
2023-02-06T08:51:43.204Z,33.37
2023-02-06T08:54:16.105Z,32.03
2023-02-06T08:56:43.607Z,35.40
2023-02-06T08:59:13.626Z,37.30
2023-02-06T09:01:42.209Z,36.07
2023-02-06T09:04:11.998Z,32.93
2023-02-06T09:06:43.574Z,33.57
2023-02-06T09:09:12.950Z,35.77
2023-02-06T09:11:40.651Z,38.53
2023-02-06T09:14:11.342Z,35.80
2023-02-06T09:16:38.969Z,35.50
2023-02-06T09:19:07.181Z,36.87
2023-02-06T09:21:36.554Z,33.03
2023-02-06T09:24:08.273Z,35.07
2023-02-06T09:26:58.033Z,33.30
2023-02-06T09:29:29.081Z,33.27
2023-02-06T09:31:57.666Z,32.90
2023-02-06T09:34:28.147Z,32.30
2023-02-06T09:36:57.037Z,35.20
2023-02-06T09:39:25.163Z,32.73
2023-02-06T09:41:57.123Z,33.03
2023-02-06T09:44:42.485Z,33.13
2023-02-06T09:47:48.647Z,31.97
2023-02-06T09:50:35.840Z,33.63
2023-02-06T09:53:30.531Z,35.83
2023-02-06T09:56:21.472Z,37.10
2023-02-06T09:59:05.986Z,41.57
2023-02-06T10:02:19.762Z,34.63
2023-02-06T10:05:22.368Z,32.57
2023-02-06T10:08:10.734Z,34.37
2023-02-06T10:10:41.264Z,32.43
2023-02-06T10:13:26.320Z,23.93
2023-02-06T10:16:01.049Z,20.63
2023-02-06T10:18:44.848Z,20.50
2023-02-06T10:21:38.309Z,24.00
2023-02-06T10:24:05.776Z,26.27
2023-02-06T10:26:39.132Z,24.90
2023-02-06T10:29:16.870Z,26.77
2023-02-06T10:32:28.819Z,28.90
2023-02-06T10:35:53.416Z,26.80
2023-02-06T10:38:51.827Z,16.90
2023-02-06T10:41:30.764Z,11.60
2023-02-06T10:44:36.758Z,7.27
2023-02-06T10:47:35.750Z,4.77
2023-02-06T10:50:29.620Z,12.90
2023-02-06T10:53:02.965Z,15.70
2023-02-06T10:56:18.103Z,13.13
2023-02-06T10:59:20.516Z,6.07
2023-02-06T11:01:50.560Z,10.07
2023-02-06T11:04:42.386Z,15.00
2023-02-06T11:07:25.206Z,16.23
2023-02-06T11:09:53.511Z,18.53
2023-02-06T11:12:52.656Z,15.23
2023-02-06T11:15:43.560Z,13.93
2023-02-06T11:18:16.436Z,12.60
2023-02-06T11:20:46.923Z,12.57
2023-02-06T11:23:37.474Z,13.70
2023-02-06T11:26:20.254Z,23.13
2023-02-06T11:28:55.329Z,16.10
2023-02-06T11:31:44.547Z,11.80
2023-02-06T11:34:34.190Z,17.13
2023-02-06T11:37:06.415Z,15.07
2023-02-06T11:39:38.982Z,14.87
2023-02-06T11:42:23.494Z,13.07
2023-02-06T11:44:53.194Z,13.43
2023-02-06T11:47:33.481Z,11.20
2023-02-06T11:50:13.583Z,14.27
2023-02-06T11:52:47.106Z,18.60
2023-02-06T11:55:27.496Z,12.40
2023-02-06T11:58:05.294Z,15.40
2023-02-06T12:00:33.754Z,16.97
2023-02-06T12:03:01.939Z,11.60
2023-02-06T12:05:37.643Z,11.53
2023-02-06T12:08:18.717Z,12.53
2023-02-06T12:11:03.577Z,12.60
2023-02-06T12:13:39.424Z,16.23
2023-02-06T12:16:08.947Z,15.80
2023-02-06T12:18:40.418Z,12.43
2023-02-06T12:21:43.033Z,17.60
2023-02-06T12:24:30.543Z,14.97
2023-02-06T12:27:03.160Z,16.37
2023-02-06T12:29:42.104Z,14.07
2023-02-06T12:32:25.178Z,13.77
2023-02-06T12:35:02.602Z,15.53
2023-02-06T12:37:54.084Z,12.80
2023-02-06T12:40:39.237Z,18.80
2023-02-06T12:43:16.487Z,15.07
2023-02-06T12:45:45.964Z,17.77
2023-02-06T12:48:28.892Z,24.97
2023-02-06T12:51:19.140Z,11.40
2023-02-06T12:53:54.558Z,22.87
2023-02-06T12:56:45.928Z,13.93
2023-02-06T12:59:31.212Z,12.10
2023-02-06T13:02:32.450Z,12.53
2023-02-06T13:05:05.891Z,13.27
2023-02-06T13:07:49.056Z,16.83
2023-02-06T13:10:24.775Z,19.90
2023-02-06T13:13:01.518Z,18.27
2023-02-06T13:15:37.916Z,16.50
2023-02-06T13:18:37.269Z,14.57
2023-02-06T13:21:30.212Z,13.50
2023-02-06T13:24:03.792Z,13.03
2023-02-06T13:26:46.506Z,14.40
2023-02-06T13:29:37.647Z,10.53
2023-02-06T13:32:29.674Z,12.67
2023-02-06T13:35:06.737Z,25.67
2023-02-06T13:37:40.321Z,55.90
2023-02-06T13:40:26.850Z,32.47
2023-02-06T13:43:14.018Z,24.80
2023-02-06T13:45:58.841Z,24.80
2023-02-06T13:49:03.636Z,17.93
2023-02-06T13:51:51.086Z,17.70
2023-02-06T13:54:38.111Z,15.70
2023-02-06T13:58:01.867Z,12.57
2023-02-06T14:00:33.401Z,14.43
2023-02-06T14:03:21.100Z,14.30
2023-02-06T14:06:07.340Z,14.03
2023-02-06T14:08:45.083Z,22.77
2023-02-06T14:11:29.000Z,16.60
2023-02-06T14:14:36.219Z,15.87
2023-02-06T14:17:37.315Z,25.10
2023-02-06T14:20:23.479Z,22.17
2023-02-06T14:23:19.388Z,23.60
2023-02-06T14:26:12.040Z,18.53
2023-02-06T14:29:03.798Z,23.30
2023-02-06T14:32:10.705Z,21.37
2023-02-06T14:35:22.087Z,23.70
2023-02-06T14:38:23.463Z,19.33
2023-02-06T14:40:55.104Z,24.83
2023-02-06T14:43:31.259Z,25.27
2023-02-06T14:46:07.954Z,17.80
2023-02-06T14:48:57.807Z,30.10
2023-02-06T14:51:34.236Z,36.77
2023-02-06T14:54:05.887Z,35.93
2023-02-06T14:56:38.045Z,28.10
2023-02-06T14:59:15.608Z,38.33
2023-02-06T15:01:47.197Z,18.87
2023-02-06T15:04:22.154Z,24.17
2023-02-06T15:06:59.566Z,45.57
2023-02-06T15:09:35.877Z,22.57
2023-02-06T15:12:21.447Z,24.43
2023-02-06T15:15:20.651Z,24.87
2023-02-06T15:18:07.002Z,35.53
2023-02-06T15:20:42.228Z,31.43
2023-02-06T15:23:40.596Z,29.90
2023-02-06T15:26:29.668Z,26.30
2023-02-06T15:29:00.658Z,30.97
2023-02-06T15:31:29.201Z,34.67
2023-02-06T15:34:00.869Z,38.03
2023-02-06T15:36:38.499Z,34.70
2023-02-06T15:39:12.554Z,31.03
2023-02-06T15:41:46.688Z,24.60
2023-02-06T15:44:26.019Z,22.33
2023-02-06T15:46:55.353Z,21.07
2023-02-06T15:49:43.444Z,21.57
2023-02-06T15:52:14.042Z,36.50
2023-02-06T15:54:45.134Z,49.33
2023-02-06T15:57:39.146Z,65.87
2023-02-06T16:00:23.591Z,62.10
2023-02-06T16:02:54.042Z,77.97
2023-02-06T16:05:31.652Z,25.33
2023-02-06T16:08:00.544Z,37.33
2023-02-06T16:10:37.235Z,30.33
2023-02-06T16:13:12.591Z,31.87
2023-02-06T16:15:41.244Z,33.57
2023-02-06T16:18:31.218Z,34.97
2023-02-06T16:21:16.916Z,66.67
2023-02-06T16:24:00.297Z,118.90
2023-02-06T16:26:47.276Z,123.07
2023-02-06T16:29:30.508Z,130.30
2023-02-06T16:32:03.194Z,176.97
2023-02-06T16:34:41.624Z,197.90
2023-02-06T16:37:22.548Z,378.33
2023-02-06T16:39:50.446Z,560.00
2023-02-06T16:42:38.299Z,534.63
2023-02-06T16:45:27.012Z,573.70
2023-02-06T16:47:55.223Z,329.00
2023-02-06T16:50:23.034Z,162.93
2023-02-06T16:52:54.815Z,145.27
2023-02-06T16:55:25.872Z,161.30
2023-02-06T16:57:58.989Z,303.87
2023-02-06T17:00:31.358Z,188.70
2023-02-06T17:02:59.809Z,136.20
2023-02-06T17:05:29.507Z,130.77
2023-02-06T17:07:57.100Z,66.80
2023-02-06T17:10:27.149Z,53.50
2023-02-06T17:12:54.546Z,132.13
2023-02-06T17:15:22.053Z,109.37
2023-02-06T17:17:49.466Z,96.67
2023-02-06T17:20:38.983Z,87.00
2023-02-06T17:23:07.301Z,240.87
2023-02-06T17:25:35.186Z,224.40
2023-02-06T17:28:03.642Z,206.97
2023-02-06T17:30:31.196Z,173.47
2023-02-06T17:32:58.648Z,173.13
2023-02-06T17:35:26.360Z,154.37
2023-02-06T17:37:54.279Z,104.40
2023-02-06T17:40:30.260Z,100.93
2023-02-06T17:42:59.359Z,79.83
2023-02-06T17:45:27.200Z,81.73
2023-02-06T17:47:54.858Z,110.90
2023-02-06T17:50:24.994Z,102.20
2023-02-06T17:52:56.343Z,141.23
2023-02-06T17:55:24.856Z,133.23
2023-02-06T17:57:53.091Z,111.50
2023-02-06T18:00:26.023Z,110.50
2023-02-06T18:02:55.639Z,105.00
2023-02-06T18:05:24.246Z,91.93
2023-02-06T18:07:52.328Z,84.00
2023-02-06T18:10:22.328Z,90.07
2023-02-06T18:12:50.106Z,136.03
2023-02-06T18:15:18.088Z,112.47
2023-02-06T18:17:45.682Z,60.43
2023-02-06T18:20:13.981Z,52.80
2023-02-06T18:22:41.714Z,51.87
2023-02-06T18:25:13.805Z,46.63
2023-02-06T18:27:42.947Z,52.37
2023-02-06T18:30:12.008Z,54.20
2023-02-06T18:32:39.952Z,48.77
2023-02-06T18:35:09.362Z,55.93
2023-02-06T18:37:37.152Z,45.67
2023-02-06T18:40:05.489Z,52.00
2023-02-06T18:42:51.412Z,50.97
2023-02-06T18:45:24.119Z,52.63
2023-02-06T18:47:52.721Z,35.00
2023-02-06T18:50:22.096Z,46.23
2023-02-06T18:52:50.565Z,68.73
2023-02-06T18:55:18.228Z,46.13
2023-02-06T18:57:46.596Z,29.33
2023-02-06T19:00:17.008Z,45.40
2023-02-06T19:02:44.549Z,94.53
2023-02-06T19:05:12.028Z,94.57
2023-02-06T19:07:39.475Z,87.17
2023-02-06T19:10:10.633Z,81.07
2023-02-06T19:12:39.446Z,84.40
2023-02-06T19:15:07.553Z,88.70
2023-02-06T19:17:35.575Z,137.27
2023-02-06T19:20:04.636Z,260.57
2023-02-06T19:22:37.671Z,268.27
2023-02-06T19:25:10.302Z,167.77
2023-02-06T19:27:38.792Z,70.13
2023-02-06T19:30:08.185Z,73.10
2023-02-06T19:32:36.396Z,78.57
2023-02-06T19:35:05.388Z,89.07
2023-02-06T19:37:32.880Z,131.27
2023-02-06T19:40:00.330Z,61.47
2023-02-06T19:42:27.778Z,38.37
2023-02-06T19:44:55.485Z,31.53
2023-02-06T19:47:23.380Z,31.83
2023-02-06T19:49:56.167Z,31.50
2023-02-06T19:52:23.589Z,29.27
2023-02-06T19:54:51.019Z,32.60
2023-02-06T19:57:19.551Z,30.13
2023-02-06T19:59:46.979Z,27.47
2023-02-06T20:02:17.197Z,28.40
2023-02-06T20:04:46.314Z,28.70
2023-02-06T20:07:13.797Z,30.03
2023-02-06T20:09:42.879Z,33.73
2023-02-06T20:12:12.603Z,34.07
2023-02-06T20:14:40.155Z,34.93
2023-02-06T20:17:08.521Z,40.43
2023-02-06T20:19:36.055Z,39.27
2023-02-06T20:22:04.548Z,37.53
2023-02-06T20:24:33.133Z,38.37
2023-02-06T20:27:04.478Z,36.57
2023-02-06T20:29:38.794Z,34.37
2023-02-06T20:32:07.490Z,40.37
2023-02-06T20:34:35.944Z,46.10
2023-02-06T20:37:04.410Z,50.40
2023-02-06T20:39:32.213Z,57.53
2023-02-06T20:42:00.418Z,48.23
2023-02-06T20:44:28.712Z,55.63
2023-02-06T20:46:56.162Z,37.90
2023-02-06T20:49:27.413Z,45.00
2023-02-06T20:51:55.308Z,48.97
2023-02-06T20:54:23.436Z,59.80
2023-02-06T20:56:51.370Z,47.07
2023-02-06T20:59:20.662Z,39.67
2023-02-06T21:01:48.700Z,38.03
2023-02-06T21:04:18.461Z,40.03
2023-02-06T21:06:48.717Z,43.20
2023-02-06T21:09:18.096Z,44.80
2023-02-06T21:11:50.330Z,44.57
2023-02-06T21:14:20.125Z,43.97
2023-02-06T21:16:47.977Z,45.10
2023-02-06T21:19:18.333Z,41.63
2023-02-06T21:21:46.420Z,43.30
2023-02-06T21:24:15.008Z,40.57
2023-02-06T21:26:42.786Z,42.00
2023-02-06T21:29:12.077Z,38.97
2023-02-06T21:31:39.686Z,39.60
2023-02-06T21:34:19.218Z,41.67
2023-02-06T21:36:47.127Z,41.43
2023-02-06T21:39:23.461Z,50.67
2023-02-06T21:41:56.901Z,58.97
2023-02-06T21:44:26.558Z,59.63
2023-02-06T21:46:56.045Z,64.93
2023-02-06T21:49:24.091Z,73.33
2023-02-06T21:51:52.086Z,80.30
2023-02-06T21:54:20.094Z,63.63
2023-02-06T21:56:47.767Z,50.23
2023-02-06T21:59:15.142Z,47.10
2023-02-06T22:01:42.932Z,43.97
2023-02-06T22:04:11.847Z,48.83
2023-02-06T22:06:39.965Z,43.73
2023-02-06T22:09:09.948Z,47.60
2023-02-06T22:11:41.569Z,41.57
2023-02-06T22:14:15.772Z,41.43
2023-02-06T22:16:46.666Z,43.67
2023-02-06T22:19:16.263Z,44.60
2023-02-06T22:21:43.981Z,47.17
2023-02-06T22:24:12.407Z,51.13
2023-02-06T22:26:41.673Z,50.37
2023-02-06T22:29:14.792Z,41.80
2023-02-06T22:31:43.451Z,47.07
2023-02-06T22:34:17.443Z,54.83
2023-02-06T22:36:44.920Z,61.37
2023-02-06T22:39:14.458Z,48.23
2023-02-06T22:41:44.672Z,48.43
2023-02-06T22:44:16.740Z,39.10
2023-02-06T22:46:47.939Z,38.37
2023-02-06T22:49:15.991Z,45.73
2023-02-06T22:51:43.810Z,40.30
2023-02-06T22:54:12.004Z,44.03
2023-02-06T22:56:42.451Z,39.97
2023-02-06T22:59:18.259Z,42.47
2023-02-06T23:01:52.708Z,47.80
2023-02-06T23:04:40.839Z,41.30
2023-02-06T23:07:08.347Z,39.63
2023-02-06T23:09:39.101Z,58.87
2023-02-06T23:12:06.941Z,64.37
2023-02-06T23:14:34.437Z,58.37
2023-02-06T23:17:03.432Z,41.50
2023-02-06T23:19:31.090Z,42.23
2023-02-06T23:21:58.871Z,37.37
2023-02-06T23:24:26.757Z,36.13
2023-02-06T23:26:54.602Z,36.77
2023-02-06T23:29:24.048Z,38.33
2023-02-06T23:31:52.486Z,38.10
2023-02-06T23:34:20.676Z,36.57
2023-02-06T23:36:48.083Z,39.03
2023-02-06T23:39:15.882Z,52.47
2023-02-06T23:41:43.358Z,53.17
2023-02-06T23:44:11.635Z,58.00
2023-02-06T23:46:40.305Z,49.73
2023-02-06T23:49:08.449Z,45.10
2023-02-06T23:51:38.136Z,44.20
2023-02-06T23:54:08.183Z,47.57
2023-02-06T23:56:36.700Z,49.57
2023-02-06T23:59:05.938Z,48.30
